sensor_id;sensor_type;location;lat;lon;timestamp;temperature;humidity
70300;HTU21D;57704;51.112;5.878;2023-03-29T00:01:38;8.32;67.43
70300;HTU21D;57704;51.112;5.878;2023-03-29T00:04:08;8.32;67.49
70300;HTU21D;57704;51.112;5.878;2023-03-29T00:06:35;8.36;67.45
70300;HTU21D;57704;51.112;5.878;2023-03-29T00:09:02;8.42;67.28
70300;HTU21D;57704;51.112;5.878;2023-03-29T00:11:31;8.48;67.10
70300;HTU21D;57704;51.112;5.878;2023-03-29T00:13:58;8.49;66.96
70300;HTU21D;57704;51.112;5.878;2023-03-29T00:16:25;8.53;66.81
70300;HTU21D;57704;51.112;5.878;2023-03-29T00:18:52;8.58;66.77
70300;HTU21D;57704;51.112;5.878;2023-03-29T00:21:18;8.66;66.47
70300;HTU21D;57704;51.112;5.878;2023-03-29T00:23:45;8.68;66.33
70300;HTU21D;57704;51.112;5.878;2023-03-29T00:26:12;8.71;66.30
70300;HTU21D;57704;51.112;5.878;2023-03-29T00:28:39;8.75;66.22
70300;HTU21D;57704;51.112;5.878;2023-03-29T00:31:14;8.78;66.17
70300;HTU21D;57704;51.112;5.878;2023-03-29T00:33:42;8.86;66.00
70300;HTU21D;57704;51.112;5.878;2023-03-29T00:36:11;8.88;65.85
70300;HTU21D;57704;51.112;5.878;2023-03-29T00:38:38;8.88;65.63
70300;HTU21D;57704;51.112;5.878;2023-03-29T00:41:07;8.89;65.70
70300;HTU21D;57704;51.112;5.878;2023-03-29T00:43:58;8.96;65.63
70300;HTU21D;57704;51.112;5.878;2023-03-29T00:46:28;8.98;65.39
70300;HTU21D;57704;51.112;5.878;2023-03-29T00:49:02;8.97;65.24
70300;HTU21D;57704;51.112;5.878;2023-03-29T00:51:38;9.00;65.13
70300;HTU21D;57704;51.112;5.878;2023-03-29T00:54:11;8.98;64.95
70300;HTU21D;57704;51.112;5.878;2023-03-29T00:56:46;9.00;64.87
70300;HTU21D;57704;51.112;5.878;2023-03-29T00:59:19;9.03;64.55
70300;HTU21D;57704;51.112;5.878;2023-03-29T01:01:56;9.06;64.30
70300;HTU21D;57704;51.112;5.878;2023-03-29T01:04:37;9.07;63.99
70300;HTU21D;57704;51.112;5.878;2023-03-29T01:07:14;9.08;63.83
70300;HTU21D;57704;51.112;5.878;2023-03-29T01:09:49;9.07;63.66
70300;HTU21D;57704;51.112;5.878;2023-03-29T01:12:23;9.08;63.53
70300;HTU21D;57704;51.112;5.878;2023-03-29T01:15:03;9.10;63.41
70300;HTU21D;57704;51.112;5.878;2023-03-29T01:17:32;9.15;63.24
70300;HTU21D;57704;51.112;5.878;2023-03-29T01:21:01;9.16;63.07
70300;HTU21D;57704;51.112;5.878;2023-03-29T01:23:34;9.18;63.11
70300;HTU21D;57704;51.112;5.878;2023-03-29T01:26:50;9.24;62.98
70300;HTU21D;57704;51.112;5.878;2023-03-29T01:29:44;9.30;62.86
70300;HTU21D;57704;51.112;5.878;2023-03-29T01:32:20;9.31;62.76
70300;HTU21D;57704;51.112;5.878;2023-03-29T01:37:44;9.32;62.78
70300;HTU21D;57704;51.112;5.878;2023-03-29T01:40:13;9.34;62.83
70300;HTU21D;57704;51.112;5.878;2023-03-29T01:48:32;9.41;62.63
70300;HTU21D;57704;51.112;5.878;2023-03-29T01:51:17;9.44;62.70
70300;HTU21D;57704;51.112;5.878;2023-03-29T01:54:09;9.49;62.67
70300;HTU21D;57704;51.112;5.878;2023-03-29T01:56:42;9.53;62.60
70300;HTU21D;57704;51.112;5.878;2023-03-29T01:59:14;9.59;62.52
70300;HTU21D;57704;51.112;5.878;2023-03-29T02:01:57;9.61;62.28
70300;HTU21D;57704;51.112;5.878;2023-03-29T02:04:34;9.61;62.37
70300;HTU21D;57704;51.112;5.878;2023-03-29T02:07:06;9.64;62.34
70300;HTU21D;57704;51.112;5.878;2023-03-29T02:09:37;9.66;62.28
70300;HTU21D;57704;51.112;5.878;2023-03-29T02:12:07;9.68;62.10
70300;HTU21D;57704;51.112;5.878;2023-03-29T02:14:34;9.67;62.14
70300;HTU21D;57704;51.112;5.878;2023-03-29T02:17:24;9.68;62.00
70300;HTU21D;57704;51.112;5.878;2023-03-29T02:20:11;9.67;61.98
70300;HTU21D;57704;51.112;5.878;2023-03-29T02:23:16;9.67;61.99
70300;HTU21D;57704;51.112;5.878;2023-03-29T02:25:45;9.70;61.93
70300;HTU21D;57704;51.112;5.878;2023-03-29T02:28:13;9.69;61.78
70300;HTU21D;57704;51.112;5.878;2023-03-29T02:31:04;9.70;61.76
70300;HTU21D;57704;51.112;5.878;2023-03-29T02:33:51;9.67;61.67
70300;HTU21D;57704;51.112;5.878;2023-03-29T02:36:35;9.66;61.79
70300;HTU21D;57704;51.112;5.878;2023-03-29T02:39:10;9.69;61.77
70300;HTU21D;57704;51.112;5.878;2023-03-29T02:41:48;9.72;61.56
70300;HTU21D;57704;51.112;5.878;2023-03-29T02:44:29;9.75;61.50
70300;HTU21D;57704;51.112;5.878;2023-03-29T02:47:43;9.75;61.50
70300;HTU21D;57704;51.112;5.878;2023-03-29T02:49:50;9.78;61.27
70300;HTU21D;57704;51.112;5.878;2023-03-29T02:52:27;9.79;61.25
70300;HTU21D;57704;51.112;5.878;2023-03-29T02:54:59;9.81;61.18
70300;HTU21D;57704;51.112;5.878;2023-03-29T02:57:29;9.79;61.10
70300;HTU21D;57704;51.112;5.878;2023-03-29T02:59:59;9.81;60.93
70300;HTU21D;57704;51.112;5.878;2023-03-29T03:02:26;9.81;60.90
70300;HTU21D;57704;51.112;5.878;2023-03-29T03:04:54;9.81;60.89
70300;HTU21D;57704;51.112;5.878;2023-03-29T03:07:21;9.83;60.86
70300;HTU21D;57704;51.112;5.878;2023-03-29T03:09:47;9.84;60.73
70300;HTU21D;57704;51.112;5.878;2023-03-29T03:12:14;9.86;60.67
70300;HTU21D;57704;51.112;5.878;2023-03-29T03:14:41;9.88;60.57
70300;HTU21D;57704;51.112;5.878;2023-03-29T03:17:08;9.91;60.39
70300;HTU21D;57704;51.112;5.878;2023-03-29T03:19:34;9.91;60.38
70300;HTU21D;57704;51.112;5.878;2023-03-29T03:22:01;9.92;60.22
70300;HTU21D;57704;51.112;5.878;2023-03-29T03:24:28;9.90;60.30
70300;HTU21D;57704;51.112;5.878;2023-03-29T03:26:55;9.93;60.22
70300;HTU21D;57704;51.112;5.878;2023-03-29T03:29:26;9.93;60.21
70300;HTU21D;57704;51.112;5.878;2023-03-29T03:32:22;9.96;60.09
70300;HTU21D;57704;51.112;5.878;2023-03-29T03:35:07;9.96;60.01
70300;HTU21D;57704;51.112;5.878;2023-03-29T03:37:35;9.96;59.98
70300;HTU21D;57704;51.112;5.878;2023-03-29T03:40:08;9.98;59.98
70300;HTU21D;57704;51.112;5.878;2023-03-29T03:42:40;10.03;59.98
70300;HTU21D;57704;51.112;5.878;2023-03-29T03:45:08;10.03;59.84
70300;HTU21D;57704;51.112;5.878;2023-03-29T03:47:55;10.06;59.68
70300;HTU21D;57704;51.112;5.878;2023-03-29T03:50:34;10.06;59.84
70300;HTU21D;57704;51.112;5.878;2023-03-29T03:53:03;10.08;59.83
70300;HTU21D;57704;51.112;5.878;2023-03-29T03:55:53;10.12;59.80
70300;HTU21D;57704;51.112;5.878;2023-03-29T03:58:24;10.10;59.70
70300;HTU21D;57704;51.112;5.878;2023-03-29T04:00:52;10.12;59.69
70300;HTU21D;57704;51.112;5.878;2023-03-29T04:03:36;10.14;59.70
70300;HTU21D;57704;51.112;5.878;2023-03-29T04:06:04;10.16;59.68
70300;HTU21D;57704;51.112;5.878;2023-03-29T04:08:48;10.18;59.73
70300;HTU21D;57704;51.112;5.878;2023-03-29T04:11:24;10.23;59.67
70300;HTU21D;57704;51.112;5.878;2023-03-29T04:13:51;10.24;59.65
70300;HTU21D;57704;51.112;5.878;2023-03-29T04:16:26;10.27;59.51
70300;HTU21D;57704;51.112;5.878;2023-03-29T04:18:54;10.24;59.50
70300;HTU21D;57704;51.112;5.878;2023-03-29T04:21:22;10.25;59.62
70300;HTU21D;57704;51.112;5.878;2023-03-29T04:23:49;10.26;59.54
70300;HTU21D;57704;51.112;5.878;2023-03-29T04:26:16;10.28;59.67
70300;HTU21D;57704;51.112;5.878;2023-03-29T04:28:48;10.31;59.67
70300;HTU21D;57704;51.112;5.878;2023-03-29T04:31:23;10.29;59.54
70300;HTU21D;57704;51.112;5.878;2023-03-29T04:33:56;10.31;59.72
70300;HTU21D;57704;51.112;5.878;2023-03-29T04:36:23;10.36;59.72
70300;HTU21D;57704;51.112;5.878;2023-03-29T04:38:50;10.37;59.75
70300;HTU21D;57704;51.112;5.878;2023-03-29T04:41:19;10.40;59.64
70300;HTU21D;57704;51.112;5.878;2023-03-29T04:43:55;10.39;59.67
70300;HTU21D;57704;51.112;5.878;2023-03-29T04:46:26;10.42;59.72
70300;HTU21D;57704;51.112;5.878;2023-03-29T04:49:12;10.43;59.67
70300;HTU21D;57704;51.112;5.878;2023-03-29T04:51:41;10.45;59.63
70300;HTU21D;57704;51.112;5.878;2023-03-29T04:54:09;10.44;59.67
70300;HTU21D;57704;51.112;5.878;2023-03-29T04:57:17;10.41;59.70
70300;HTU21D;57704;51.112;5.878;2023-03-29T05:00:19;10.43;59.83
70300;HTU21D;57704;51.112;5.878;2023-03-29T05:02:54;10.43;59.92
70300;HTU21D;57704;51.112;5.878;2023-03-29T05:05:24;10.46;59.98
70300;HTU21D;57704;51.112;5.878;2023-03-29T05:07:52;10.46;59.94
70300;HTU21D;57704;51.112;5.878;2023-03-29T05:10:25;10.45;59.91
70300;HTU21D;57704;51.112;5.878;2023-03-29T05:12:53;10.48;59.93
70300;HTU21D;57704;51.112;5.878;2023-03-29T05:15:21;10.48;59.94
70300;HTU21D;57704;51.112;5.878;2023-03-29T05:17:48;10.49;60.09
70300;HTU21D;57704;51.112;5.878;2023-03-29T05:20:16;10.48;60.09
70300;HTU21D;57704;51.112;5.878;2023-03-29T05:22:45;10.48;60.07
70300;HTU21D;57704;51.112;5.878;2023-03-29T05:25:21;10.51;60.15
70300;HTU21D;57704;51.112;5.878;2023-03-29T05:27:49;10.52;60.22
70300;HTU21D;57704;51.112;5.878;2023-03-29T05:30:16;10.56;60.11
70300;HTU21D;57704;51.112;5.878;2023-03-29T05:33:01;10.54;60.24
70300;HTU21D;57704;51.112;5.878;2023-03-29T05:35:33;10.55;60.29
70300;HTU21D;57704;51.112;5.878;2023-03-29T05:38:04;10.54;60.38
70300;HTU21D;57704;51.112;5.878;2023-03-29T05:40:32;10.55;60.59
70300;HTU21D;57704;51.112;5.878;2023-03-29T05:43:10;10.59;60.44
70300;HTU21D;57704;51.112;5.878;2023-03-29T05:45:37;10.58;60.59
70300;HTU21D;57704;51.112;5.878;2023-03-29T05:48:04;10.62;60.73
70300;HTU21D;57704;51.112;5.878;2023-03-29T05:50:31;10.66;60.70
70300;HTU21D;57704;51.112;5.878;2023-03-29T05:52:58;10.70;60.72
70300;HTU21D;57704;51.112;5.878;2023-03-29T05:55:25;10.71;60.69
70300;HTU21D;57704;51.112;5.878;2023-03-29T05:57:52;10.73;60.77
70300;HTU21D;57704;51.112;5.878;2023-03-29T06:00:22;10.74;60.80
70300;HTU21D;57704;51.112;5.878;2023-03-29T06:02:54;10.78;60.86
70300;HTU21D;57704;51.112;5.878;2023-03-29T06:05:22;10.78;60.96
70300;HTU21D;57704;51.112;5.878;2023-03-29T06:07:57;10.82;60.98
70300;HTU21D;57704;51.112;5.878;2023-03-29T06:10:46;10.85;61.03
70300;HTU21D;57704;51.112;5.878;2023-03-29T06:13:33;10.89;61.04
70300;HTU21D;57704;51.112;5.878;2023-03-29T06:16:00;10.90;61.10
70300;HTU21D;57704;51.112;5.878;2023-03-29T06:18:27;10.96;61.12
70300;HTU21D;57704;51.112;5.878;2023-03-29T06:20:53;11.00;61.19
70300;HTU21D;57704;51.112;5.878;2023-03-29T06:23:20;11.08;61.12
70300;HTU21D;57704;51.112;5.878;2023-03-29T06:25:48;11.11;61.18
70300;HTU21D;57704;51.112;5.878;2023-03-29T06:28:17;11.17;61.09
70300;HTU21D;57704;51.112;5.878;2023-03-29T06:30:45;11.26;61.24
70300;HTU21D;57704;51.112;5.878;2023-03-29T06:33:12;11.39;61.15
70300;HTU21D;57704;51.112;5.878;2023-03-29T06:35:45;11.55;60.83
70300;HTU21D;57704;51.112;5.878;2023-03-29T06:38:15;11.63;60.73
70300;HTU21D;57704;51.112;5.878;2023-03-29T06:41:09;11.77;60.36
70300;HTU21D;57704;51.112;5.878;2023-03-29T06:44:07;11.77;60.33
70300;HTU21D;57704;51.112;5.878;2023-03-29T06:46:48;11.79;60.31
70300;HTU21D;57704;51.112;5.878;2023-03-29T06:49:14;11.78;60.35
70300;HTU21D;57704;51.112;5.878;2023-03-29T06:51:57;11.82;60.49
70300;HTU21D;57704;51.112;5.878;2023-03-29T06:54:24;11.86;60.38
70300;HTU21D;57704;51.112;5.878;2023-03-29T06:56:58;11.90;60.41
70300;HTU21D;57704;51.112;5.878;2023-03-29T06:59:26;11.89;60.50
70300;HTU21D;57704;51.112;5.878;2023-03-29T07:02:23;11.94;60.63
70300;HTU21D;57704;51.112;5.878;2023-03-29T07:05:08;11.97;60.80
70300;HTU21D;57704;51.112;5.878;2023-03-29T07:07:46;12.12;61.57
70300;HTU21D;57704;51.112;5.878;2023-03-29T07:10:31;12.34;60.78
70300;HTU21D;57704;51.112;5.878;2023-03-29T07:13:17;12.46;60.15
70300;HTU21D;57704;51.112;5.878;2023-03-29T07:15:44;12.55;59.91
70300;HTU21D;57704;51.112;5.878;2023-03-29T07:18:19;12.56;59.85
70300;HTU21D;57704;51.112;5.878;2023-03-29T07:20:46;12.56;59.56
70300;HTU21D;57704;51.112;5.878;2023-03-29T07:23:14;12.55;59.61
70300;HTU21D;57704;51.112;5.878;2023-03-29T07:25:40;12.55;59.49
70300;HTU21D;57704;51.112;5.878;2023-03-29T07:28:07;12.59;59.69
70300;HTU21D;57704;51.112;5.878;2023-03-29T07:30:34;12.73;59.54
70300;HTU21D;57704;51.112;5.878;2023-03-29T07:33:11;12.79;59.19
70300;HTU21D;57704;51.112;5.878;2023-03-29T07:35:58;12.84;59.23
70300;HTU21D;57704;51.112;5.878;2023-03-29T07:38:24;12.91;59.27
70300;HTU21D;57704;51.112;5.878;2023-03-29T07:41:01;12.97;58.89
70300;HTU21D;57704;51.112;5.878;2023-03-29T07:43:37;13.03;59.14
70300;HTU21D;57704;51.112;5.878;2023-03-29T07:46:07;13.10;58.96
70300;HTU21D;57704;51.112;5.878;2023-03-29T07:48:35;13.15;58.86
70300;HTU21D;57704;51.112;5.878;2023-03-29T07:51:05;13.20;58.54
70300;HTU21D;57704;51.112;5.878;2023-03-29T07:53:42;13.19;58.44
70300;HTU21D;57704;51.112;5.878;2023-03-29T07:56:28;13.16;58.42
70300;HTU21D;57704;51.112;5.878;2023-03-29T07:59:21;13.10;58.56
70300;HTU21D;57704;51.112;5.878;2023-03-29T08:02:04;13.03;58.86
70300;HTU21D;57704;51.112;5.878;2023-03-29T08:04:37;12.96;58.96
70300;HTU21D;57704;51.112;5.878;2023-03-29T08:07:15;12.99;58.97
70300;HTU21D;57704;51.112;5.878;2023-03-29T08:10:17;13.00;59.15
70300;HTU21D;57704;51.112;5.878;2023-03-29T08:12:56;13.02;59.06
70300;HTU21D;57704;51.112;5.878;2023-03-29T08:15:49;13.01;59.17
70300;HTU21D;57704;51.112;5.878;2023-03-29T08:18:38;13.03;59.19
70300;HTU21D;57704;51.112;5.878;2023-03-29T08:21:06;13.06;59.23
70300;HTU21D;57704;51.112;5.878;2023-03-29T08:23:32;13.10;59.21
70300;HTU21D;57704;51.112;5.878;2023-03-29T08:26:24;13.14;59.06
70300;HTU21D;57704;51.112;5.878;2023-03-29T08:28:53;13.14;59.20
70300;HTU21D;57704;51.112;5.878;2023-03-29T08:31:22;13.11;59.34
70300;HTU21D;57704;51.112;5.878;2023-03-29T08:33:48;13.12;59.42
70300;HTU21D;57704;51.112;5.878;2023-03-29T08:36:40;13.19;59.48
70300;HTU21D;57704;51.112;5.878;2023-03-29T08:39:19;13.23;59.44
70300;HTU21D;57704;51.112;5.878;2023-03-29T08:50:00;13.37;59.51
70300;HTU21D;57704;51.112;5.878;2023-03-29T08:52:48;13.44;59.24
70300;HTU21D;57704;51.112;5.878;2023-03-29T08:55:57;13.49;59.20
70300;HTU21D;57704;51.112;5.878;2023-03-29T08:58:47;13.55;58.93
70300;HTU21D;57704;51.112;5.878;2023-03-29T09:01:15;13.53;59.07
70300;HTU21D;57704;51.112;5.878;2023-03-29T09:06:33;13.55;59.13
70300;HTU21D;57704;51.112;5.878;2023-03-29T09:09:17;13.62;59.14
70300;HTU21D;57704;51.112;5.878;2023-03-29T09:17:54;13.96;58.60
70300;HTU21D;57704;51.112;5.878;2023-03-29T09:26:29;14.95;58.22
70300;HTU21D;57704;51.112;5.878;2023-03-29T09:29:31;15.29;56.19
70300;HTU21D;57704;51.112;5.878;2023-03-29T09:32:12;15.39;54.87
70300;HTU21D;57704;51.112;5.878;2023-03-29T09:34:55;15.39;55.77
70300;HTU21D;57704;51.112;5.878;2023-03-29T09:37:32;15.57;55.42
70300;HTU21D;57704;51.112;5.878;2023-03-29T09:40:44;15.86;54.73
70300;HTU21D;57704;51.112;5.878;2023-03-29T09:43:17;16.02;53.81
70300;HTU21D;57704;51.112;5.878;2023-03-29T09:45:52;16.04;53.71
70300;HTU21D;57704;51.112;5.878;2023-03-29T09:48:26;16.10;53.14
70300;HTU21D;57704;51.112;5.878;2023-03-29T09:50:56;16.00;53.38
70300;HTU21D;57704;51.112;5.878;2023-03-29T09:53:23;16.06;53.44
70300;HTU21D;57704;51.112;5.878;2023-03-29T09:56:01;16.08;53.14
70300;HTU21D;57704;51.112;5.878;2023-03-29T09:58:47;16.06;52.97
70300;HTU21D;57704;51.112;5.878;2023-03-29T10:01:18;16.02;53.45
70300;HTU21D;57704;51.112;5.878;2023-03-29T10:03:52;16.30;53.58
70300;HTU21D;57704;51.112;5.878;2023-03-29T10:06:22;16.77;52.34
70300;HTU21D;57704;51.112;5.878;2023-03-29T10:08:55;17.41;52.05
70300;HTU21D;57704;51.112;5.878;2023-03-29T10:11:32;17.96;50.84
70300;HTU21D;57704;51.112;5.878;2023-03-29T10:14:03;18.21;49.53
70300;HTU21D;57704;51.112;5.878;2023-03-29T10:16:39;18.27;47.73
70300;HTU21D;57704;51.112;5.878;2023-03-29T10:19:26;18.24;48.34
70300;HTU21D;57704;51.112;5.878;2023-03-29T10:21:54;17.93;48.29
70300;HTU21D;57704;51.112;5.878;2023-03-29T10:24:26;17.73;49.17
70300;HTU21D;57704;51.112;5.878;2023-03-29T10:26:57;17.62;49.45
70300;HTU21D;57704;51.112;5.878;2023-03-29T10:29:24;17.47;49.56
70300;HTU21D;57704;51.112;5.878;2023-03-29T10:31:52;17.29;50.16
70300;HTU21D;57704;51.112;5.878;2023-03-29T10:34:21;17.34;50.32
70300;HTU21D;57704;51.112;5.878;2023-03-29T10:36:57;17.49;51.24
70300;HTU21D;57704;51.112;5.878;2023-03-29T10:39:27;17.83;50.08
70300;HTU21D;57704;51.112;5.878;2023-03-29T10:41:54;17.90;49.78
70300;HTU21D;57704;51.112;5.878;2023-03-29T10:46:53;17.89;48.74
70300;HTU21D;57704;51.112;5.878;2023-03-29T10:49:22;17.53;49.89
70300;HTU21D;57704;51.112;5.878;2023-03-29T10:51:51;17.40;50.21
70300;HTU21D;57704;51.112;5.878;2023-03-29T10:54:22;17.21;50.69
70300;HTU21D;57704;51.112;5.878;2023-03-29T10:57:02;17.07;50.79
70300;HTU21D;57704;51.112;5.878;2023-03-29T10:59:48;16.75;51.44
70300;HTU21D;57704;51.112;5.878;2023-03-29T11:02:49;16.61;52.17
70300;HTU21D;57704;51.112;5.878;2023-03-29T11:19:17;18.29;49.69
70300;HTU21D;57704;51.112;5.878;2023-03-29T11:24:28;18.94;48.82
70300;HTU21D;57704;51.112;5.878;2023-03-29T11:30:14;20.22;45.37
70300;HTU21D;57704;51.112;5.878;2023-03-29T11:33:12;20.34;45.94
70300;HTU21D;57704;51.112;5.878;2023-03-29T11:41:33;21.62;43.90
70300;HTU21D;57704;51.112;5.878;2023-03-29T11:44:30;21.82;42.15
70300;HTU21D;57704;51.112;5.878;2023-03-29T11:47:07;21.59;43.05
70300;HTU21D;57704;51.112;5.878;2023-03-29T11:49:51;21.25;43.64
70300;HTU21D;57704;51.112;5.878;2023-03-29T11:52:26;21.13;43.83
70300;HTU21D;57704;51.112;5.878;2023-03-29T11:55:05;21.10;43.99
70300;HTU21D;57704;51.112;5.878;2023-03-29T11:57:50;21.05;43.51
70300;HTU21D;57704;51.112;5.878;2023-03-29T12:02:49;20.57;44.91
70300;HTU21D;57704;51.112;5.878;2023-03-29T12:05:24;20.69;44.95
70300;HTU21D;57704;51.112;5.878;2023-03-29T12:08:02;20.80;44.74
70300;HTU21D;57704;51.112;5.878;2023-03-29T12:13:43;21.17;44.54
70300;HTU21D;57704;51.112;5.878;2023-03-29T12:16:32;21.64;43.42
70300;HTU21D;57704;51.112;5.878;2023-03-29T12:19:07;21.53;42.36
70300;HTU21D;57704;51.112;5.878;2023-03-29T12:21:40;21.16;43.99
70300;HTU21D;57704;51.112;5.878;2023-03-29T12:24:15;20.89;44.67
70300;HTU21D;57704;51.112;5.878;2023-03-29T12:26:58;20.78;45.19
70300;HTU21D;57704;51.112;5.878;2023-03-29T12:30:05;20.56;45.72
70300;HTU21D;57704;51.112;5.878;2023-03-29T12:36:03;20.11;47.12
70300;HTU21D;57704;51.112;5.878;2023-03-29T12:38:39;19.94;47.46
70300;HTU21D;57704;51.112;5.878;2023-03-29T12:41:34;19.76;47.71
70300;HTU21D;57704;51.112;5.878;2023-03-29T12:44:22;19.60;48.00
70300;HTU21D;57704;51.112;5.878;2023-03-29T12:46:58;19.55;48.07
70300;HTU21D;57704;51.112;5.878;2023-03-29T12:49:36;19.55;47.98
70300;HTU21D;57704;51.112;5.878;2023-03-29T12:52:25;19.47;48.30
70300;HTU21D;57704;51.112;5.878;2023-03-29T12:54:55;19.41;48.37
70300;HTU21D;57704;51.112;5.878;2023-03-29T12:57:56;19.46;48.57
70300;HTU21D;57704;51.112;5.878;2023-03-29T13:03:05;19.73;48.05
70300;HTU21D;57704;51.112;5.878;2023-03-29T13:05:44;19.92;48.30
70300;HTU21D;57704;51.112;5.878;2023-03-29T13:08:26;20.42;47.57
70300;HTU21D;57704;51.112;5.878;2023-03-29T13:10:55;20.81;47.09
70300;HTU21D;57704;51.112;5.878;2023-03-29T13:13:35;21.28;46.01
70300;HTU21D;57704;51.112;5.878;2023-03-29T13:16:16;21.50;45.54
70300;HTU21D;57704;51.112;5.878;2023-03-29T13:24:51;21.14;45.61
70300;HTU21D;57704;51.112;5.878;2023-03-29T13:30:09;20.80;46.35
70300;HTU21D;57704;51.112;5.878;2023-03-29T13:33:02;20.69;46.57
70300;HTU21D;57704;51.112;5.878;2023-03-29T13:35:50;20.41;47.02
70300;HTU21D;57704;51.112;5.878;2023-03-29T13:38:25;20.12;47.70
70300;HTU21D;57704;51.112;5.878;2023-03-29T13:46:20;19.89;48.70
70300;HTU21D;57704;51.112;5.878;2023-03-29T13:48:59;19.86;49.11
70300;HTU21D;57704;51.112;5.878;2023-03-29T13:51:47;19.92;49.15
70300;HTU21D;57704;51.112;5.878;2023-03-29T13:54:32;19.92;49.07
70300;HTU21D;57704;51.112;5.878;2023-03-29T13:57:22;19.95;49.23
70300;HTU21D;57704;51.112;5.878;2023-03-29T14:00:08;19.90;49.26
70300;HTU21D;57704;51.112;5.878;2023-03-29T14:05:18;20.02;49.25
70300;HTU21D;57704;51.112;5.878;2023-03-29T14:07:50;19.98;49.27
70300;HTU21D;57704;51.112;5.878;2023-03-29T14:10:23;19.99;49.24
70300;HTU21D;57704;51.112;5.878;2023-03-29T14:12:52;19.92;49.46
70300;HTU21D;57704;51.112;5.878;2023-03-29T14:15:25;19.88;49.50
70300;HTU21D;57704;51.112;5.878;2023-03-29T14:17:56;19.81;49.60
70300;HTU21D;57704;51.112;5.878;2023-03-29T14:20:23;19.72;49.67
70300;HTU21D;57704;51.112;5.878;2023-03-29T14:22:50;19.58;49.91
70300;HTU21D;57704;51.112;5.878;2023-03-29T14:25:20;19.52;50.13
70300;HTU21D;57704;51.112;5.878;2023-03-29T14:27:47;19.51;50.30
70300;HTU21D;57704;51.112;5.878;2023-03-29T14:30:26;19.53;50.02
70300;HTU21D;57704;51.112;5.878;2023-03-29T14:32:53;19.40;50.37
70300;HTU21D;57704;51.112;5.878;2023-03-29T14:35:28;19.42;50.60
70300;HTU21D;57704;51.112;5.878;2023-03-29T14:37:57;19.31;50.85
70300;HTU21D;57704;51.112;5.878;2023-03-29T14:40:24;19.32;50.97
70300;HTU21D;57704;51.112;5.878;2023-03-29T14:42:52;19.39;51.07
70300;HTU21D;57704;51.112;5.878;2023-03-29T14:45:21;19.48;50.97
70300;HTU21D;57704;51.112;5.878;2023-03-29T14:47:51;19.54;51.00
70300;HTU21D;57704;51.112;5.878;2023-03-29T14:50:24;19.52;51.19
70300;HTU21D;57704;51.112;5.878;2023-03-29T14:52:52;19.48;51.67
70300;HTU21D;57704;51.112;5.878;2023-03-29T14:55:20;19.51;51.96
70300;HTU21D;57704;51.112;5.878;2023-03-29T14:57:55;19.52;52.16
70300;HTU21D;57704;51.112;5.878;2023-03-29T15:00:40;19.55;52.60
70300;HTU21D;57704;51.112;5.878;2023-03-29T15:03:14;19.56;52.43
70300;HTU21D;57704;51.112;5.878;2023-03-29T15:06:03;19.59;52.62
70300;HTU21D;57704;51.112;5.878;2023-03-29T15:08:34;19.65;52.86
70300;HTU21D;57704;51.112;5.878;2023-03-29T15:11:01;19.67;53.05
70300;HTU21D;57704;51.112;5.878;2023-03-29T15:13:29;19.75;52.96
70300;HTU21D;57704;51.112;5.878;2023-03-29T15:16:01;19.82;52.94
70300;HTU21D;57704;51.112;5.878;2023-03-29T15:18:32;19.92;52.99
70300;HTU21D;57704;51.112;5.878;2023-03-29T15:21:01;19.97;53.02
70300;HTU21D;57704;51.112;5.878;2023-03-29T15:23:36;20.05;53.10
70300;HTU21D;57704;51.112;5.878;2023-03-29T15:26:38;20.01;53.10
70300;HTU21D;57704;51.112;5.878;2023-03-29T15:31:37;19.91;53.74
70300;HTU21D;57704;51.112;5.878;2023-03-29T15:34:11;19.85;53.88
70300;HTU21D;57704;51.112;5.878;2023-03-29T15:36:43;19.82;54.09
70300;HTU21D;57704;51.112;5.878;2023-03-29T15:39:14;19.66;54.52
70300;HTU21D;57704;51.112;5.878;2023-03-29T15:41:44;19.62;54.91
70300;HTU21D;57704;51.112;5.878;2023-03-29T15:44:14;19.61;55.25
70300;HTU21D;57704;51.112;5.878;2023-03-29T15:46:42;19.59;55.05
70300;HTU21D;57704;51.112;5.878;2023-03-29T15:49:13;19.60;55.11
70300;HTU21D;57704;51.112;5.878;2023-03-29T15:51:42;19.63;55.19
70300;HTU21D;57704;51.112;5.878;2023-03-29T15:54:08;19.67;55.15
70300;HTU21D;57704;51.112;5.878;2023-03-29T15:56:45;19.63;55.51
70300;HTU21D;57704;51.112;5.878;2023-03-29T15:59:14;19.55;55.86
70300;HTU21D;57704;51.112;5.878;2023-03-29T16:01:43;19.53;55.93
70300;HTU21D;57704;51.112;5.878;2023-03-29T16:04:17;19.52;55.97
70300;HTU21D;57704;51.112;5.878;2023-03-29T16:06:47;19.48;56.21
70300;HTU21D;57704;51.112;5.878;2023-03-29T16:09:14;19.44;56.20
70300;HTU21D;57704;51.112;5.878;2023-03-29T16:11:42;19.38;56.43
70300;HTU21D;57704;51.112;5.878;2023-03-29T16:16:38;19.33;56.60
70300;HTU21D;57704;51.112;5.878;2023-03-29T16:19:05;19.25;56.97
70300;HTU21D;57704;51.112;5.878;2023-03-29T16:21:31;19.21;57.01
70300;HTU21D;57704;51.112;5.878;2023-03-29T16:23:58;19.17;57.20
70300;HTU21D;57704;51.112;5.878;2023-03-29T16:26:26;19.16;57.20
70300;HTU21D;57704;51.112;5.878;2023-03-29T16:28:52;19.08;57.45
70300;HTU21D;57704;51.112;5.878;2023-03-29T16:31:18;19.02;57.75
70300;HTU21D;57704;51.112;5.878;2023-03-29T16:33:44;19.02;58.00
70300;HTU21D;57704;51.112;5.878;2023-03-29T16:36:10;18.95;58.19
70300;HTU21D;57704;51.112;5.878;2023-03-29T16:38:37;18.92;58.24
70300;HTU21D;57704;51.112;5.878;2023-03-29T16:41:03;18.94;58.35
70300;HTU21D;57704;51.112;5.878;2023-03-29T16:43:29;18.91;58.35
70300;HTU21D;57704;51.112;5.878;2023-03-29T16:45:56;18.84;58.48
70300;HTU21D;57704;51.112;5.878;2023-03-29T16:48:22;18.81;58.65
70300;HTU21D;57704;51.112;5.878;2023-03-29T16:50:49;18.76;58.67
70300;HTU21D;57704;51.112;5.878;2023-03-29T16:53:17;18.71;59.03
70300;HTU21D;57704;51.112;5.878;2023-03-29T16:55:47;18.65;59.06
70300;HTU21D;57704;51.112;5.878;2023-03-29T16:58:13;18.55;59.33
70300;HTU21D;57704;51.112;5.878;2023-03-29T17:00:40;18.55;59.41
70300;HTU21D;57704;51.112;5.878;2023-03-29T17:03:09;18.52;59.48
70300;HTU21D;57704;51.112;5.878;2023-03-29T17:05:36;18.49;59.66
70300;HTU21D;57704;51.112;5.878;2023-03-29T17:08:07;18.39;60.07
70300;HTU21D;57704;51.112;5.878;2023-03-29T17:10:35;18.35;59.80
70300;HTU21D;57704;51.112;5.878;2023-03-29T17:13:05;18.32;59.88
70300;HTU21D;57704;51.112;5.878;2023-03-29T17:15:31;18.26;59.90
70300;HTU21D;57704;51.112;5.878;2023-03-29T17:17:59;18.30;59.93
70300;HTU21D;57704;51.112;5.878;2023-03-29T17:20:27;18.19;60.18
70300;HTU21D;57704;51.112;5.878;2023-03-29T17:22:53;18.09;60.28
70300;HTU21D;57704;51.112;5.878;2023-03-29T17:25:22;18.02;60.51
70300;HTU21D;57704;51.112;5.878;2023-03-29T17:27:49;18.00;60.55
70300;HTU21D;57704;51.112;5.878;2023-03-29T17:30:16;17.97;60.62
70300;HTU21D;57704;51.112;5.878;2023-03-29T17:32:43;17.91;60.76
70300;HTU21D;57704;51.112;5.878;2023-03-29T17:35:11;17.85;60.92
70300;HTU21D;57704;51.112;5.878;2023-03-29T17:37:38;17.81;61.09
70300;HTU21D;57704;51.112;5.878;2023-03-29T17:40:05;17.74;61.17